createdAt,value
2023-02-01T00:02:57.206Z,3.22
2023-02-01T00:07:59.081Z,3.22
2023-02-01T00:13:00.893Z,3.28
2023-02-01T00:18:02.736Z,3.33
2023-02-01T00:23:04.519Z,3.31
2023-02-01T00:28:06.321Z,3.29
2023-02-01T00:33:08.189Z,3.27
2023-02-01T00:38:09.961Z,3.29
2023-02-01T00:43:12.019Z,3.26
2023-02-01T00:48:14.016Z,3.26
2023-02-01T00:53:15.782Z,3.18
2023-02-01T00:58:17.653Z,3.19
2023-02-01T01:03:19.510Z,3.24
2023-02-01T01:08:21.305Z,3.21
2023-02-01T01:13:23.301Z,3.23
2023-02-01T01:18:25.181Z,3.17
2023-02-01T01:23:28.026Z,3.19
2023-02-01T01:28:29.826Z,3.16
2023-02-01T01:33:31.645Z,3.13
2023-02-01T01:38:33.518Z,3.15
2023-02-01T01:43:47.522Z,3.17
2023-02-01T01:49:03.912Z,3.18
2023-02-01T01:54:30.498Z,3.14
2023-02-01T01:59:36.037Z,3.13
2023-02-01T02:04:38.423Z,3.14
2023-02-01T02:09:45.352Z,3.16
2023-02-01T02:14:50.346Z,3.14
2023-02-01T02:20:12.823Z,3.12
2023-02-01T02:25:39.016Z,3.12
2023-02-01T02:31:08.536Z,3.09
2023-02-01T02:36:13.337Z,3.13
2023-02-01T02:41:46.203Z,3.15
2023-02-01T02:47:09.984Z,3.13
2023-02-01T02:52:39.811Z,3.09
2023-02-01T02:58:03.592Z,3.11
2023-02-01T03:03:24.982Z,3.11
2023-02-01T03:08:29.436Z,3.07
2023-02-01T03:13:37.282Z,2.98
2023-02-01T03:19:01.222Z,2.98
2023-02-01T03:24:09.629Z,2.96
2023-02-01T03:29:20.701Z,2.92
2023-02-01T03:34:23.008Z,2.90
2023-02-01T03:39:37.318Z,2.86
2023-02-01T03:44:47.070Z,2.81
2023-02-01T03:49:55.288Z,2.77
2023-02-01T03:54:58.745Z,2.79
2023-02-01T04:00:17.435Z,2.78
2023-02-01T04:05:21.282Z,2.75
2023-02-01T04:10:38.694Z,2.71
2023-02-01T04:15:40.966Z,2.68
2023-02-01T04:20:44.037Z,2.67
2023-02-01T04:25:46.028Z,2.66
2023-02-01T04:30:47.912Z,2.70
2023-02-01T04:35:49.742Z,2.74
2023-02-01T04:40:51.728Z,2.77
2023-02-01T04:45:54.916Z,2.78
2023-02-01T04:50:56.985Z,2.78
2023-02-01T04:55:58.774Z,2.78
2023-02-01T05:01:05.481Z,2.80
2023-02-01T05:06:07.393Z,2.86
2023-02-01T05:11:29.327Z,2.85
2023-02-01T05:16:31.271Z,2.84
2023-02-01T05:21:33.099Z,2.80
2023-02-01T05:26:34.944Z,2.77
2023-02-01T05:31:37.341Z,2.71
2023-02-01T05:36:39.207Z,2.71
2023-02-01T05:41:41.042Z,2.75
2023-02-01T05:46:42.879Z,2.75
2023-02-01T05:51:44.662Z,2.81
2023-02-01T05:56:46.442Z,2.81
2023-02-01T06:01:48.229Z,2.75
2023-02-01T06:06:51.449Z,2.72
2023-02-01T06:11:53.220Z,2.65
2023-02-01T06:16:56.120Z,2.56
2023-02-01T06:21:57.906Z,2.54
2023-02-01T06:26:59.671Z,2.51
2023-02-01T06:32:01.549Z,2.48
2023-02-01T06:37:03.372Z,2.46
2023-02-01T06:42:05.218Z,2.39
2023-02-01T06:47:09.161Z,2.40
2023-02-01T06:52:11.197Z,2.39
2023-02-01T06:57:13.110Z,2.40
2023-02-01T07:02:14.933Z,2.42
2023-02-01T07:07:16.834Z,2.48
2023-02-01T07:12:20.366Z,2.51
2023-02-01T07:17:22.152Z,2.57
2023-02-01T07:22:23.983Z,2.64
2023-02-01T07:27:26.737Z,2.63
2023-02-01T07:32:29.039Z,2.66
2023-02-01T07:37:31.796Z,2.71
2023-02-01T07:42:33.587Z,2.78
2023-02-01T07:47:35.364Z,2.89
2023-02-01T07:52:37.217Z,2.92
2023-02-01T07:57:39.107Z,2.97
2023-02-01T08:02:40.883Z,2.99
2023-02-01T08:07:42.654Z,3.02
2023-02-01T08:12:48.705Z,3.07
2023-02-01T08:17:51.885Z,3.11
2023-02-01T08:22:54.742Z,3.15
2023-02-01T08:27:56.715Z,3.23
2023-02-01T08:32:59.213Z,3.33
2023-02-01T08:38:00.992Z,3.35
2023-02-01T08:43:02.881Z,3.44
2023-02-01T08:48:04.873Z,3.43
2023-02-01T08:53:06.678Z,3.32
2023-02-01T08:58:08.478Z,3.29
2023-02-01T09:03:11.936Z,3.17
2023-02-01T09:08:15.937Z,2.33
2023-02-01T09:13:17.853Z,2.06
2023-02-01T09:18:19.680Z,2.10
2023-02-01T09:23:21.540Z,2.08
2023-02-01T09:28:23.382Z,2.13
2023-02-01T09:33:27.593Z,2.31
2023-02-01T09:38:30.497Z,2.32
2023-02-01T09:43:43.296Z,2.37
2023-02-01T09:48:47.670Z,2.50
2023-02-01T09:54:01.149Z,2.68
2023-02-01T09:59:25.747Z,2.88
2023-02-01T10:04:27.714Z,2.88
2023-02-01T10:09:51.336Z,2.78
2023-02-01T10:15:11.322Z,2.87
2023-02-01T10:20:27.420Z,2.90
2023-02-01T10:25:53.379Z,2.97
2023-02-01T10:30:59.535Z,3.22
2023-02-01T10:36:18.169Z,3.42
2023-02-01T10:41:22.958Z,3.63
2023-02-01T10:46:25.353Z,3.72
2023-02-01T10:51:46.679Z,3.83
2023-02-01T10:56:50.922Z,3.95
2023-02-01T11:02:00.887Z,4.28
2023-02-01T11:07:08.695Z,4.34
2023-02-01T11:12:35.912Z,4.30
2023-02-01T11:17:43.269Z,4.50
2023-02-01T11:22:57.058Z,4.60
2023-02-01T11:27:58.938Z,5.16
2023-02-01T11:33:04.064Z,5.28
2023-02-01T11:38:22.580Z,4.70
2023-02-01T11:43:29.722Z,4.63
2023-02-01T11:48:34.215Z,4.54
2023-02-01T11:53:52.159Z,4.73
2023-02-01T11:59:24.168Z,4.74
2023-02-01T12:04:32.069Z,4.78
2023-02-01T12:09:52.591Z,4.82
2023-02-01T12:15:42.497Z,4.73
2023-02-01T12:21:00.494Z,4.63
2023-02-01T12:26:18.645Z,4.68
2023-02-01T12:31:30.537Z,4.64
2023-02-01T12:36:38.480Z,4.75
2023-02-01T12:42:04.572Z,4.75
2023-02-01T12:47:19.531Z,4.75
2023-02-01T12:52:28.772Z,4.74
2023-02-01T12:57:41.554Z,4.80
2023-02-01T13:03:12.607Z,4.74
2023-02-01T13:08:44.775Z,4.76
2023-02-01T13:13:57.074Z,4.66
2023-02-01T13:19:07.693Z,4.73
2023-02-01T13:24:38.290Z,4.71
2023-02-01T13:29:47.767Z,4.74
2023-02-01T13:35:37.665Z,4.68
2023-02-01T13:40:48.786Z,4.66
2023-02-01T13:45:55.480Z,4.60
2023-02-01T13:51:00.052Z,4.60
2023-02-01T13:56:03.467Z,4.57
2023-02-01T14:01:23.764Z,4.55
2023-02-01T14:06:28.886Z,4.52
2023-02-01T14:11:41.352Z,4.51
2023-02-01T14:17:09.342Z,4.50
2023-02-01T14:22:26.988Z,4.51
2023-02-01T14:27:35.829Z,4.49
2023-02-01T14:32:47.778Z,4.45
2023-02-01T14:37:53.975Z,4.37
2023-02-01T14:42:56.669Z,4.29
2023-02-01T14:48:07.657Z,4.24
2023-02-01T14:53:09.634Z,4.22
2023-02-01T14:58:53.528Z,4.15
2023-02-01T15:04:01.495Z,4.12
2023-02-01T15:09:14.751Z,4.09
2023-02-01T15:14:16.613Z,4.07
2023-02-01T15:19:18.409Z,4.03
2023-02-01T15:24:22.568Z,3.99
2023-02-01T15:29:30.439Z,3.93
2023-02-01T15:34:50.193Z,3.89
2023-02-01T15:40:25.109Z,3.87
2023-02-01T15:45:33.803Z,3.90
2023-02-01T15:50:40.851Z,3.87
2023-02-01T15:55:43.884Z,3.96
2023-02-01T16:00:48.726Z,4.06
2023-02-01T16:05:59.757Z,4.09
2023-02-01T16:11:21.692Z,4.15
2023-02-01T16:16:23.829Z,4.18
2023-02-01T16:21:25.789Z,4.17
2023-02-01T16:26:27.578Z,4.19
2023-02-01T16:31:31.630Z,4.17
2023-02-01T16:36:34.890Z,4.10
2023-02-01T16:41:36.858Z,3.81
2023-02-01T16:46:45.438Z,3.76
2023-02-01T16:51:50.974Z,3.62
2023-02-01T16:56:52.823Z,3.42
2023-02-01T17:01:54.637Z,2.95
2023-02-01T17:06:56.469Z,1.18
2023-02-01T17:11:58.267Z,0.21
2023-02-01T17:17:00.732Z,-0.02
2023-02-01T17:22:02.638Z,-0.03
2023-02-01T17:27:04.640Z,-0.09
2023-02-01T17:32:06.845Z,-0.06
2023-02-01T17:37:23.689Z,-0.08
2023-02-01T17:42:27.976Z,0.09
2023-02-01T17:47:29.787Z,0.14
2023-02-01T17:52:31.616Z,0.23
2023-02-01T17:57:33.431Z,0.29
2023-02-01T18:02:35.285Z,0.27
2023-02-01T18:07:37.115Z,0.33
2023-02-01T18:12:39.487Z,0.44
2023-02-01T18:17:41.289Z,0.43
2023-02-01T18:22:44.445Z,0.51
2023-02-01T18:27:47.386Z,0.56
2023-02-01T18:32:49.756Z,0.59
2023-02-01T18:37:52.409Z,0.65
2023-02-01T18:42:54.620Z,0.67
2023-02-01T18:47:57.811Z,0.70
2023-02-01T18:53:01.283Z,0.77
2023-02-01T18:58:04.781Z,0.81
2023-02-01T19:03:06.668Z,0.84
2023-02-01T19:08:09.041Z,0.90
2023-02-01T19:13:15.263Z,0.89
2023-02-01T19:18:20.266Z,0.90
2023-02-01T19:23:22.257Z,0.93
2023-02-01T19:28:24.144Z,0.93
2023-02-01T19:33:26.027Z,0.97
2023-02-01T19:38:28.025Z,0.97
2023-02-01T19:43:29.871Z,0.92
2023-02-01T19:48:31.895Z,0.91
2023-02-01T19:53:33.760Z,0.91
2023-02-01T19:58:35.741Z,0.95
2023-02-01T20:03:36.658Z,0.99
2023-02-01T20:08:38.482Z,1.01
2023-02-01T20:13:40.308Z,0.98
2023-02-01T20:18:42.418Z,1.02
2023-02-01T20:23:47.650Z,0.99
2023-02-01T20:28:50.756Z,0.98
2023-02-01T20:33:52.892Z,1.02
2023-02-01T20:38:55.538Z,1.05
2023-02-01T20:43:57.414Z,1.13
2023-02-01T20:48:59.189Z,1.18
2023-02-01T20:54:01.005Z,1.17
2023-02-01T20:59:10.838Z,1.17
2023-02-01T21:04:12.663Z,1.23
2023-02-01T21:09:14.836Z,1.27
2023-02-01T21:14:16.881Z,1.33
2023-02-01T21:19:19.481Z,1.38
2023-02-01T21:24:21.378Z,1.41
2023-02-01T21:29:23.189Z,1.41
2023-02-01T21:34:25.400Z,1.53
2023-02-01T21:39:28.995Z,1.67
2023-02-01T21:44:30.886Z,1.76
2023-02-01T21:49:32.765Z,1.72
2023-02-01T21:54:34.766Z,1.64
2023-02-01T21:59:36.773Z,1.52
2023-02-01T22:04:38.573Z,1.36
2023-02-01T22:09:40.786Z,1.26
2023-02-01T22:14:44.856Z,1.27
2023-02-01T22:19:46.630Z,1.24
2023-02-01T22:24:48.532Z,1.29
2023-02-01T22:29:50.301Z,1.35
2023-02-01T22:34:52.093Z,1.48
2023-02-01T22:39:55.370Z,1.47
2023-02-01T22:44:58.239Z,1.57
2023-02-01T22:50:00.100Z,1.54
2023-02-01T22:55:01.912Z,1.51
2023-02-01T23:00:05.310Z,1.60
2023-02-01T23:05:07.446Z,1.65
2023-02-01T23:10:10.079Z,1.52
2023-02-01T23:15:12.854Z,1.35
2023-02-01T23:20:18.240Z,1.22
2023-02-01T23:25:20.240Z,1.16
2023-02-01T23:30:22.350Z,1.03
2023-02-01T23:35:24.460Z,1.01
2023-02-01T23:40:26.518Z,1.02
2023-02-01T23:45:28.556Z,1.21
2023-02-01T23:50:30.404Z,1.34
2023-02-01T23:55:32.187Z,1.40
